createdAt,value
2022-10-05T00:01:31.944Z,55.80
2022-10-05T00:04:16.197Z,55.47
2022-10-05T00:06:51.983Z,55.50
2022-10-05T00:09:22.320Z,55.54
2022-10-05T00:11:52.086Z,54.55
2022-10-05T00:14:26.926Z,55.48
2022-10-05T00:16:57.149Z,55.04
2022-10-05T00:19:38.859Z,55.13
2022-10-05T00:22:10.379Z,55.83
2022-10-05T00:24:38.948Z,56.36
2022-10-05T00:27:21.377Z,56.42
2022-10-05T00:29:52.266Z,56.42
2022-10-05T00:32:20.954Z,56.81
2022-10-05T00:34:49.932Z,56.96
2022-10-05T00:37:19.137Z,57.42
2022-10-05T00:39:47.924Z,57.28
2022-10-05T00:42:41.123Z,58.11
2022-10-05T00:45:32.669Z,58.00
2022-10-05T00:48:33.395Z,58.12
2022-10-05T00:51:16.542Z,59.10
2022-10-05T00:53:54.659Z,59.40
2022-10-05T00:56:50.067Z,59.51
2022-10-05T00:59:37.732Z,59.99
2022-10-05T01:02:24.839Z,59.71
2022-10-05T01:05:04.160Z,59.49
2022-10-05T01:08:07.736Z,59.37
2022-10-05T01:10:58.089Z,59.36
2022-10-05T01:13:59.193Z,59.04
2022-10-05T01:16:58.958Z,59.49
2022-10-05T01:19:39.869Z,59.21
2022-10-05T01:22:24.617Z,59.17
2022-10-05T01:24:56.400Z,59.32
2022-10-05T01:27:50.352Z,59.40
2022-10-05T01:30:22.350Z,59.34
2022-10-05T01:33:13.334Z,59.07
2022-10-05T01:36:15.898Z,59.31
2022-10-05T01:39:03.483Z,58.90
2022-10-05T01:42:22.899Z,59.62
2022-10-05T01:45:12.755Z,59.92
2022-10-05T01:47:52.658Z,59.43
2022-10-05T01:50:26.536Z,59.70
2022-10-05T01:53:15.768Z,59.47
2022-10-05T01:55:55.888Z,58.98
2022-10-05T01:58:51.138Z,59.26
2022-10-05T02:01:28.314Z,59.48
2022-10-05T02:04:56.520Z,59.45
2022-10-05T02:07:29.662Z,59.71
2022-10-05T02:10:23.197Z,60.03
2022-10-05T02:13:15.331Z,59.61
2022-10-05T02:15:53.985Z,59.33
2022-10-05T02:18:28.128Z,59.50
2022-10-05T02:20:59.422Z,59.20
2022-10-05T02:23:34.613Z,59.63
2022-10-05T02:26:05.607Z,59.78
2022-10-05T02:28:41.278Z,59.82
2022-10-05T02:31:44.103Z,59.45
2022-10-05T02:34:22.207Z,59.13
2022-10-05T02:37:08.581Z,59.09
2022-10-05T02:40:00.043Z,59.18
2022-10-05T02:42:37.338Z,59.17
2022-10-05T02:45:28.759Z,58.72
2022-10-05T02:48:00.201Z,58.36
2022-10-05T02:50:47.689Z,58.95
2022-10-05T02:53:27.399Z,58.99
2022-10-05T02:56:11.762Z,58.48
2022-10-05T02:58:51.784Z,58.65
2022-10-05T03:01:51.770Z,58.56
2022-10-05T03:04:23.765Z,58.18
2022-10-05T03:07:04.243Z,58.02
2022-10-05T03:09:48.759Z,57.79
2022-10-05T03:12:29.341Z,55.86
2022-10-05T03:15:24.122Z,56.13
2022-10-05T03:17:55.448Z,55.76
2022-10-05T03:20:52.688Z,55.28
2022-10-05T03:24:00.160Z,55.16
2022-10-05T03:26:50.823Z,54.53
2022-10-05T03:29:43.835Z,54.28
2022-10-05T03:32:27.746Z,54.27
2022-10-05T03:35:19.096Z,53.30
2022-10-05T03:38:09.423Z,54.17
2022-10-05T03:40:48.055Z,53.77
2022-10-05T03:43:45.609Z,52.36
2022-10-05T03:46:33.645Z,53.17
2022-10-05T03:49:21.153Z,52.82
2022-10-05T03:52:15.969Z,52.31
2022-10-05T03:54:53.744Z,52.94
2022-10-05T03:57:29.502Z,53.39
2022-10-05T04:00:15.591Z,53.42
2022-10-05T04:03:10.705Z,53.14
2022-10-05T04:05:51.119Z,53.72
2022-10-05T04:08:43.042Z,53.66
2022-10-05T04:11:45.405Z,53.79
2022-10-05T04:14:29.487Z,53.42
2022-10-05T04:17:06.882Z,53.74
2022-10-05T04:20:20.794Z,53.31
2022-10-05T04:23:15.733Z,53.37
2022-10-05T04:25:52.750Z,53.45
2022-10-05T04:28:33.797Z,53.90
2022-10-05T04:31:12.725Z,53.40
2022-10-05T04:33:44.626Z,53.32
2022-10-05T04:36:37.266Z,53.45
2022-10-05T04:39:12.339Z,53.15
2022-10-05T04:41:56.918Z,53.03
2022-10-05T04:44:46.741Z,52.91
2022-10-05T04:47:57.376Z,53.30
2022-10-05T04:51:09.876Z,52.72
2022-10-05T04:53:55.509Z,52.52
2022-10-05T04:56:35.722Z,52.26
2022-10-05T04:59:30.093Z,52.04
2022-10-05T05:02:14.637Z,52.30
2022-10-05T05:05:20.572Z,51.47
2022-10-05T05:08:01.601Z,51.46
2022-10-05T05:10:48.512Z,51.68
2022-10-05T05:13:51.198Z,50.66
2022-10-05T05:16:35.718Z,51.23
2022-10-05T05:19:28.848Z,50.53
2022-10-05T05:22:26.838Z,49.92
2022-10-05T05:25:18.030Z,49.82
2022-10-05T05:27:59.239Z,49.77
2022-10-05T05:31:03.799Z,48.96
2022-10-05T05:33:47.503Z,49.55
2022-10-05T05:37:03.143Z,48.03
2022-10-05T05:39:40.131Z,48.63
2022-10-05T05:42:30.496Z,48.17
2022-10-05T05:45:05.374Z,47.73
2022-10-05T05:47:38.390Z,48.05
2022-10-05T05:50:25.036Z,48.00
2022-10-05T05:53:04.357Z,47.16
2022-10-05T05:55:42.125Z,47.02
2022-10-05T05:58:47.659Z,47.24
2022-10-05T06:01:53.639Z,46.71
2022-10-05T06:04:28.587Z,46.83
2022-10-05T06:07:02.119Z,46.30
2022-10-05T06:09:41.340Z,46.05
2022-10-05T06:12:33.332Z,46.41
2022-10-05T06:15:13.272Z,45.30
2022-10-05T06:17:53.491Z,44.78
2022-10-05T06:20:36.544Z,44.47
2022-10-05T06:23:15.096Z,45.07
2022-10-05T06:26:16.509Z,44.50
2022-10-05T06:28:52.894Z,44.86
2022-10-05T06:31:57.884Z,43.88
2022-10-05T06:34:49.258Z,43.45
2022-10-05T06:37:39.696Z,43.92
2022-10-05T06:40:28.643Z,43.16
2022-10-05T06:43:19.378Z,43.16
2022-10-05T06:46:24.338Z,42.89
2022-10-05T06:49:21.407Z,43.33
2022-10-05T06:52:39.891Z,42.59
2022-10-05T06:55:27.270Z,42.75
2022-10-05T06:58:08.627Z,42.37
2022-10-05T07:00:57.167Z,42.07
2022-10-05T07:03:56.932Z,41.94
2022-10-05T07:07:15.423Z,41.96
2022-10-05T07:09:53.857Z,41.85
2022-10-05T07:12:43.661Z,41.76
2022-10-05T07:15:37.734Z,41.35
2022-10-05T07:18:28.416Z,41.05
2022-10-05T07:21:18.321Z,40.77
2022-10-05T07:24:09.287Z,40.73
2022-10-05T07:26:46.475Z,39.90
2022-10-05T07:29:30.170Z,40.79
2022-10-05T07:32:23.509Z,40.07
2022-10-05T07:35:35.259Z,40.05
2022-10-05T07:38:24.021Z,40.08
2022-10-05T07:40:59.980Z,39.96
2022-10-05T07:44:02.022Z,39.84
2022-10-05T07:46:58.875Z,39.40
2022-10-05T07:49:31.732Z,39.57
2022-10-05T07:52:05.808Z,39.01
2022-10-05T07:55:05.510Z,39.39
2022-10-05T07:57:53.863Z,38.87
2022-10-05T08:00:25.940Z,38.52
2022-10-05T08:03:07.128Z,38.68
2022-10-05T08:05:43.775Z,38.31
2022-10-05T08:08:14.318Z,38.40
2022-10-05T08:11:12.582Z,38.65
2022-10-05T08:13:55.411Z,38.47
2022-10-05T08:16:31.705Z,38.29
2022-10-05T08:19:26.032Z,38.88
2022-10-05T08:22:05.163Z,38.50
2022-10-05T08:25:02.927Z,38.17
2022-10-05T08:27:40.691Z,38.65
2022-10-05T08:30:15.092Z,39.02
2022-10-05T08:33:21.476Z,38.42
2022-10-05T08:36:11.361Z,38.87
2022-10-05T08:38:41.456Z,38.76
2022-10-05T08:42:06.025Z,38.46
2022-10-05T08:44:59.238Z,38.23
2022-10-05T08:47:28.920Z,38.45
2022-10-05T08:50:26.703Z,38.35
2022-10-05T08:53:13.971Z,38.22
2022-10-05T08:56:21.494Z,38.56
2022-10-05T08:59:06.805Z,37.84
2022-10-05T09:01:35.419Z,38.07
2022-10-05T09:04:22.011Z,37.45
2022-10-05T09:07:24.354Z,37.61
2022-10-05T09:10:13.819Z,36.88
2022-10-05T09:12:51.375Z,37.02
2022-10-05T09:15:38.100Z,37.15
2022-10-05T09:18:22.303Z,37.39
2022-10-05T09:21:03.466Z,37.09
2022-10-05T09:23:37.973Z,36.65
2022-10-05T09:26:44.838Z,35.94
2022-10-05T09:29:34.856Z,36.09
2022-10-05T09:32:21.004Z,36.08
2022-10-05T09:35:01.811Z,36.07
2022-10-05T09:37:51.605Z,35.36
2022-10-05T09:40:36.941Z,35.16
2022-10-05T09:43:29.195Z,35.77
2022-10-05T09:46:12.990Z,36.29
2022-10-05T09:49:00.385Z,35.80
2022-10-05T09:51:50.491Z,36.31
2022-10-05T09:54:37.731Z,35.70
2022-10-05T09:57:30.198Z,35.77
2022-10-05T10:03:06.171Z,36.19
2022-10-05T10:05:47.716Z,36.34
2022-10-05T10:08:37.987Z,36.21
2022-10-05T10:11:27.277Z,36.44
2022-10-05T10:14:14.150Z,36.34
2022-10-05T10:16:51.356Z,36.61
2022-10-05T10:19:28.964Z,36.10
2022-10-05T10:22:14.803Z,36.33
2022-10-05T10:25:09.726Z,35.95
2022-10-05T10:28:03.309Z,37.15
2022-10-05T10:30:47.066Z,37.00
2022-10-05T10:33:47.300Z,36.95
2022-10-05T10:36:24.540Z,36.95
2022-10-05T10:39:21.700Z,37.58
2022-10-05T10:42:01.709Z,37.49
2022-10-05T10:45:08.978Z,37.55
2022-10-05T10:47:47.717Z,37.71
2022-10-05T10:51:06.568Z,37.84
2022-10-05T10:53:58.166Z,37.71
2022-10-05T10:57:06.804Z,37.46
2022-10-05T10:59:53.827Z,37.78
2022-10-05T11:02:30.461Z,38.13
2022-10-05T11:05:32.001Z,38.23
2022-10-05T11:08:37.538Z,38.24
2022-10-05T11:11:30.335Z,38.52
2022-10-05T11:14:17.359Z,38.68
2022-10-05T11:17:19.133Z,38.42
2022-10-05T11:20:32.581Z,38.99
2022-10-05T11:23:16.408Z,38.84
2022-10-05T11:26:11.270Z,39.04
2022-10-05T11:28:42.873Z,39.02
2022-10-05T11:31:50.245Z,39.16
2022-10-05T11:34:57.130Z,39.58
2022-10-05T11:37:46.306Z,39.37
2022-10-05T11:40:45.879Z,39.83
2022-10-05T11:43:44.926Z,39.58
2022-10-05T11:46:25.944Z,40.19
2022-10-05T11:49:03.413Z,40.36
2022-10-05T11:51:50.720Z,40.39
2022-10-05T11:54:32.538Z,40.59
2022-10-05T11:57:10.298Z,40.90
2022-10-05T12:00:00.087Z,40.97
2022-10-05T12:02:43.585Z,41.35
2022-10-05T12:05:28.106Z,41.52
2022-10-05T12:08:15.535Z,41.68
2022-10-05T12:10:58.924Z,42.23
2022-10-05T12:14:07.631Z,42.73
2022-10-05T12:16:56.752Z,42.75
2022-10-05T12:19:32.415Z,43.35
2022-10-05T12:22:16.140Z,43.45
2022-10-05T12:24:47.830Z,44.17
2022-10-05T12:27:23.925Z,44.64
2022-10-05T12:30:20.956Z,44.99
2022-10-05T12:33:02.055Z,45.20
2022-10-05T12:35:47.876Z,45.77
2022-10-05T12:38:47.357Z,45.90
2022-10-05T12:41:16.083Z,45.82
2022-10-05T12:44:07.792Z,46.35
2022-10-05T12:46:42.293Z,46.79
2022-10-05T12:49:14.233Z,47.18
2022-10-05T12:52:00.886Z,47.52
2022-10-05T12:54:56.165Z,48.18
2022-10-05T12:57:45.902Z,48.21
2022-10-05T13:00:22.937Z,48.09
2022-10-05T13:03:13.536Z,48.42
2022-10-05T13:05:48.193Z,48.26
2022-10-05T13:08:33.313Z,48.98
2022-10-05T13:11:04.745Z,48.75
2022-10-05T13:13:36.067Z,48.98
2022-10-05T13:16:21.307Z,48.86
2022-10-05T13:19:08.199Z,49.21
2022-10-05T13:22:13.316Z,49.44
2022-10-05T13:25:09.313Z,49.38
2022-10-05T13:27:43.438Z,48.80
2022-10-05T13:30:18.927Z,49.40
2022-10-05T13:33:16.067Z,49.66
2022-10-05T13:36:14.615Z,49.05
2022-10-05T13:38:43.472Z,48.83
2022-10-05T13:41:18.828Z,49.23
2022-10-05T13:43:59.573Z,50.23
2022-10-05T13:46:52.988Z,49.99
2022-10-05T13:52:51.163Z,50.06
2022-10-05T13:55:47.038Z,50.55
2022-10-05T13:58:30.543Z,51.15
2022-10-05T14:01:23.794Z,50.85
2022-10-05T14:04:11.465Z,51.21
2022-10-05T14:06:40.187Z,51.04
2022-10-05T14:09:33.990Z,51.11
2022-10-05T14:12:05.062Z,52.28
2022-10-05T14:14:48.346Z,51.97
2022-10-05T14:17:39.847Z,51.74
2022-10-05T14:20:31.807Z,52.35
2022-10-05T14:23:12.060Z,50.81
2022-10-05T14:25:55.695Z,52.02
2022-10-05T14:28:33.481Z,51.53
2022-10-05T14:31:13.116Z,50.77
2022-10-05T14:33:42.286Z,50.76
2022-10-05T14:36:25.025Z,50.36
2022-10-05T14:39:01.147Z,50.12
2022-10-05T14:41:35.243Z,49.79
2022-10-05T14:44:06.740Z,49.81
2022-10-05T14:46:36.746Z,49.34
2022-10-05T14:49:27.215Z,49.62
2022-10-05T14:51:57.167Z,49.90
2022-10-05T14:54:34.389Z,50.16
2022-10-05T14:57:25.865Z,49.59
2022-10-05T15:00:09.263Z,49.70
2022-10-05T15:02:45.741Z,49.29
2022-10-05T15:05:17.314Z,49.30
2022-10-05T15:07:50.046Z,48.77
2022-10-05T15:10:37.267Z,48.77
2022-10-05T15:13:29.152Z,48.19
2022-10-05T15:16:20.389Z,48.86
2022-10-05T15:18:52.394Z,49.25
2022-10-05T15:21:52.993Z,49.24
2022-10-05T15:24:26.075Z,48.68
2022-10-05T15:27:01.237Z,48.81
2022-10-05T15:29:47.403Z,48.85
2022-10-05T15:32:42.336Z,49.37
2022-10-05T15:35:25.838Z,49.21
2022-10-05T15:38:23.773Z,49.55
2022-10-05T15:41:21.022Z,49.56
2022-10-05T15:43:52.410Z,49.41
2022-10-05T15:46:36.362Z,49.20
2022-10-05T15:49:13.595Z,48.95
2022-10-05T15:51:42.332Z,48.19
2022-10-05T15:54:45.084Z,47.94
2022-10-05T15:57:51.342Z,48.34
2022-10-05T16:00:24.184Z,48.54
2022-10-05T16:02:55.566Z,47.39
2022-10-05T16:05:59.870Z,48.21
2022-10-05T16:09:02.124Z,47.57
2022-10-05T16:11:44.722Z,47.16
2022-10-05T16:14:38.882Z,47.25
2022-10-05T16:17:07.638Z,47.22
2022-10-05T16:19:57.175Z,46.94
2022-10-05T16:23:05.511Z,46.61
2022-10-05T16:26:16.055Z,46.06
2022-10-05T16:29:08.661Z,46.47
2022-10-05T16:32:07.713Z,45.37
2022-10-05T16:35:09.551Z,45.16
2022-10-05T16:38:01.288Z,45.09
2022-10-05T16:40:57.278Z,44.76
2022-10-05T16:43:45.663Z,44.92
2022-10-05T16:46:42.236Z,44.57
2022-10-05T16:49:20.075Z,44.54
2022-10-05T16:51:59.763Z,43.77
2022-10-05T16:54:47.850Z,43.86
2022-10-05T16:57:25.201Z,42.84
2022-10-05T17:00:05.658Z,42.03
2022-10-05T17:02:46.773Z,41.57
2022-10-05T17:05:56.139Z,41.63
2022-10-05T17:08:37.465Z,40.91
2022-10-05T17:11:17.147Z,40.40
2022-10-05T17:14:17.977Z,40.68
2022-10-05T17:16:55.373Z,39.59
2022-10-05T17:19:34.762Z,39.42
2022-10-05T17:22:31.502Z,39.79
2022-10-05T17:25:09.232Z,39.53
2022-10-05T17:27:57.997Z,40.19
2022-10-05T17:30:54.612Z,39.21
2022-10-05T17:33:25.522Z,38.78
2022-10-05T17:36:09.001Z,38.12
2022-10-05T17:38:50.520Z,38.63
2022-10-05T17:41:30.860Z,38.83
2022-10-05T17:44:19.962Z,38.27
2022-10-05T17:46:49.450Z,38.11
2022-10-05T17:49:40.503Z,38.08
2022-10-05T17:52:55.995Z,37.85
2022-10-05T17:55:37.104Z,37.40
2022-10-05T17:58:26.700Z,38.26
2022-10-05T18:01:07.713Z,38.69
2022-10-05T18:03:41.759Z,38.35
2022-10-05T18:06:32.612Z,38.28
2022-10-05T18:09:13.682Z,38.68
2022-10-05T18:11:45.202Z,38.62
2022-10-05T18:14:27.883Z,38.85
2022-10-05T18:17:13.221Z,38.30
2022-10-05T18:19:42.241Z,39.48
2022-10-05T18:22:28.743Z,38.90
2022-10-05T18:25:36.622Z,39.35
2022-10-05T18:28:24.193Z,39.77
2022-10-05T18:31:11.528Z,39.46
2022-10-05T18:34:18.682Z,40.51
2022-10-05T18:37:01.531Z,40.13
2022-10-05T18:40:06.409Z,39.44
2022-10-05T18:42:50.700Z,39.98
2022-10-05T18:45:37.994Z,39.81
2022-10-05T18:48:40.116Z,39.93
2022-10-05T18:51:39.720Z,40.29
2022-10-05T18:54:30.724Z,40.44
2022-10-05T18:57:03.561Z,40.80
2022-10-05T18:59:54.276Z,40.78
2022-10-05T19:02:39.397Z,41.03
2022-10-05T19:08:36.518Z,41.11
2022-10-05T19:11:23.900Z,41.69
2022-10-05T19:14:31.579Z,41.36
2022-10-05T19:17:03.181Z,40.69
2022-10-05T19:19:46.989Z,41.08
2022-10-05T19:22:42.825Z,40.27
2022-10-05T19:25:40.281Z,41.13
2022-10-05T19:28:14.063Z,41.69
2022-10-05T19:30:53.582Z,41.83
2022-10-05T19:33:42.130Z,41.37
2022-10-05T19:36:32.745Z,42.32
2022-10-05T19:39:29.412Z,42.75
2022-10-05T19:42:18.388Z,42.79
2022-10-05T19:45:03.373Z,42.50
2022-10-05T19:47:43.608Z,42.94
2022-10-05T19:50:23.803Z,43.31
2022-10-05T19:53:04.764Z,42.63
2022-10-05T19:55:42.270Z,43.78
2022-10-05T19:58:26.047Z,43.54
2022-10-05T20:00:56.182Z,44.01
2022-10-05T20:03:28.429Z,44.69
2022-10-05T20:06:04.802Z,44.76
2022-10-05T20:08:42.650Z,45.19
2022-10-05T20:11:23.063Z,44.82
2022-10-05T20:13:55.633Z,45.12
2022-10-05T20:16:45.914Z,45.49
2022-10-05T20:19:50.482Z,46.15
2022-10-05T20:22:35.772Z,45.64
2022-10-05T20:25:29.340Z,45.62
2022-10-05T20:27:59.192Z,45.68
2022-10-05T20:30:29.702Z,45.17
2022-10-05T20:33:02.321Z,46.11
2022-10-05T20:35:34.341Z,45.83
2022-10-05T20:38:03.062Z,46.14
2022-10-05T20:40:31.933Z,45.86
2022-10-05T20:43:00.450Z,46.51
2022-10-05T20:45:29.166Z,46.88
2022-10-05T20:47:57.712Z,46.04
2022-10-05T20:50:28.334Z,46.02
2022-10-05T20:52:58.283Z,46.28
2022-10-05T20:55:32.046Z,46.25
2022-10-05T20:58:01.064Z,46.36
2022-10-05T21:00:49.533Z,46.07
2022-10-05T21:03:19.359Z,46.35
2022-10-05T21:05:47.891Z,46.22
2022-10-05T21:08:16.606Z,46.76
2022-10-05T21:10:45.234Z,46.03
2022-10-05T21:13:13.858Z,45.74
2022-10-05T21:15:43.403Z,46.32
2022-10-05T21:18:12.141Z,46.65
2022-10-05T21:20:40.722Z,46.28
2022-10-05T21:23:09.120Z,46.66
2022-10-05T21:25:37.904Z,47.04
2022-10-05T21:28:07.252Z,46.63
2022-10-05T21:30:35.962Z,47.06
2022-10-05T21:33:04.346Z,47.19
2022-10-05T21:35:33.234Z,47.42
2022-10-05T21:38:01.700Z,47.82
2022-10-05T21:40:30.310Z,48.38
2022-10-05T21:42:58.949Z,48.40
2022-10-05T21:45:29.577Z,48.41
2022-10-05T21:47:58.749Z,48.63
2022-10-05T21:50:27.660Z,48.46
2022-10-05T21:52:56.143Z,48.14
2022-10-05T21:55:24.671Z,48.46
2022-10-05T21:57:53.300Z,49.01
2022-10-05T22:00:21.865Z,48.64
2022-10-05T22:02:50.480Z,48.67
2022-10-05T22:05:19.042Z,48.31
2022-10-05T22:07:47.541Z,48.50
2022-10-05T22:10:16.047Z,48.64
2022-10-05T22:12:47.144Z,48.14
2022-10-05T22:15:16.184Z,48.21
2022-10-05T22:17:46.672Z,48.36
2022-10-05T22:20:16.281Z,48.25
2022-10-05T22:22:44.821Z,48.84
2022-10-05T22:25:13.581Z,48.52
2022-10-05T22:27:43.775Z,48.36
2022-10-05T22:30:15.646Z,48.13
2022-10-05T22:32:45.021Z,48.57
2022-10-05T22:35:13.723Z,48.46
2022-10-05T22:37:42.421Z,47.92
2022-10-05T22:40:12.408Z,47.77
2022-10-05T22:42:41.487Z,47.55
2022-10-05T22:45:10.462Z,47.73
2022-10-05T22:47:38.824Z,47.96
2022-10-05T22:50:08.024Z,47.80
2022-10-05T22:52:36.733Z,47.85
2022-10-05T22:55:05.961Z,47.91
2022-10-05T22:57:41.703Z,48.35
2022-10-05T23:00:11.850Z,48.36
2022-10-05T23:02:42.428Z,48.59
2022-10-05T23:05:14.102Z,48.91
2022-10-05T23:07:45.252Z,49.18
2022-10-05T23:10:16.917Z,49.40
2022-10-05T23:12:46.004Z,49.26
2022-10-05T23:15:14.609Z,48.81
2022-10-05T23:17:42.971Z,48.77
2022-10-05T23:20:11.468Z,48.44
2022-10-05T23:22:40.478Z,48.75
2022-10-05T23:25:09.637Z,48.88
2022-10-05T23:27:39.740Z,49.22
2022-10-05T23:30:10.664Z,50.05
2022-10-05T23:32:41.806Z,50.12
2022-10-05T23:35:12.620Z,50.35
2022-10-05T23:37:43.483Z,50.14
2022-10-05T23:40:14.457Z,50.44
2022-10-05T23:42:43.184Z,50.42
2022-10-05T23:45:12.840Z,50.81
2022-10-05T23:47:41.991Z,50.41
2022-10-05T23:50:10.942Z,51.23
2022-10-05T23:52:39.397Z,51.19
2022-10-05T23:55:08.558Z,51.41
2022-10-05T23:57:37.307Z,51.59
